Time;durP1;ratioP1;P1;durP2;ratioP2;P2;SDS_P1;SDS_P2;PMS_P1;PMS_P2;Temp;Humidity;BMP_temperature;BMP_pressure;BME280_temperature;BME280_humidity;BME280_pressure;Samples;Min_cycle;Max_cycle;Signal;HPM_P1;HPM_P2
2022/03/02 00:00:12;;;;;;;7.50;5.35;;;14.30;34.60;;;;;;5149146;27;46832;-21
2022/03/02 00:02:38;;;;;;;7.70;5.57;;;14.30;34.50;;;;;;5130442;27;49044;-20
2022/03/02 00:05:05;;;;;;;7.05;5.28;;;14.30;34.60;;;;;;5148909;27;47234;-21
2022/03/02 00:07:32;;;;;;;6.95;5.50;;;14.20;34.50;;;;;;5149102;27;46815;-21
2022/03/02 00:09:59;;;;;;;9.07;5.88;;;14.20;34.60;;;;;;5147964;27;46920;-20
2022/03/02 00:12:25;;;;;;;7.50;5.55;;;14.20;34.60;;;;;;5148817;27;49047;-21
2022/03/02 00:14:53;;;;;;;6.55;5.15;;;14.20;34.60;;;;;;5148327;27;46887;-21
2022/03/02 00:17:20;;;;;;;6.70;4.95;;;14.20;34.60;;;;;;5149020;27;46851;-21
2022/03/02 00:19:47;;;;;;;6.78;5.35;;;14.20;34.70;;;;;;5148821;27;47121;-21
2022/03/02 00:22:14;;;;;;;7.50;5.28;;;14.20;34.70;;;;;;5148379;27;47072;-21
2022/03/02 00:24:40;;;;;;;7.82;5.63;;;14.10;34.60;;;;;;5148413;27;47113;-21
2022/03/02 00:27:07;;;;;;;6.47;5.60;;;14.10;34.70;;;;;;5148427;27;47172;-20
2022/03/02 00:29:34;;;;;;;7.22;5.63;;;14.10;34.80;;;;;;5148663;27;47305;-20
2022/03/02 00:32:02;;;;;;;6.28;5.07;;;14.10;34.80;;;;;;5148624;27;47827;-21
2022/03/02 00:34:29;;;;;;;6.38;5.03;;;14.00;34.70;;;;;;5148090;27;47189;-16
2022/03/02 00:36:55;;;;;;;8.18;5.70;;;14.00;34.70;;;;;;5148305;27;47002;-15
2022/03/02 00:39:22;;;;;;;7.45;5.32;;;14.10;34.70;;;;;;5148679;27;47317;-15
2022/03/02 00:41:51;;;;;;;8.05;5.80;;;14.20;34.50;;;;;;5148037;27;47969;-16
2022/03/02 00:44:17;;;;;;;7.68;5.60;;;14.40;34.40;;;;;;5147743;27;47553;-16
2022/03/02 00:46:45;;;;;;;7.10;5.30;;;14.40;34.10;;;;;;5148362;27;47009;-16
2022/03/02 00:49:14;;;;;;;7.50;5.72;;;14.50;34.00;;;;;;5148495;27;47220;-16
2022/03/02 00:51:41;;;;;;;6.05;5.25;;;14.60;33.70;;;;;;5147881;27;48106;-15
2022/03/02 00:54:08;;;;;;;7.10;5.15;;;14.70;33.60;;;;;;5147602;27;46991;-20
2022/03/02 00:56:35;;;;;;;8.63;5.38;;;14.80;33.50;;;;;;5148015;27;46821;-17
2022/03/02 00:59:01;;;;;;;7.43;5.07;;;14.80;33.30;;;;;;5148094;27;46910;-16
2022/03/02 01:01:28;;;;;;;6.38;5.20;;;14.80;33.20;;;;;;5147591;27;48611;-17
2022/03/02 01:03:55;;;;;;;7.00;5.13;;;14.80;33.20;;;;;;5147765;27;46922;-17
2022/03/02 01:06:23;;;;;;;6.30;4.75;;;14.90;33.10;;;;;;5148045;27;46749;-16
2022/03/02 01:08:50;;;;;;;6.38;4.78;;;14.90;33.10;;;;;;5147868;27;47291;-17
2022/03/02 01:11:16;;;;;;;6.03;4.53;;;14.90;33.10;;;;;;5147881;27;48058;-16
2022/03/02 01:13:43;;;;;;;6.03;4.72;;;14.90;33.00;;;;;;5147718;27;47467;-16
2022/03/02 01:16:10;;;;;;;6.10;5.07;;;14.90;33.00;;;;;;5148041;27;46871;-16
2022/03/02 01:18:36;;;;;;;6.40;4.93;;;14.90;33.00;;;;;;5147695;27;47013;-16
2022/03/02 01:21:03;;;;;;;5.32;4.45;;;14.80;33.00;;;;;;5147341;27;48863;-21
2022/03/02 01:23:32;;;;;;;5.38;4.85;;;14.90;33.10;;;;;;5147151;27;46957;-21
2022/03/02 01:25:59;;;;;;;5.57;4.18;;;14.90;33.10;;;;;;5147612;27;46908;-15
2022/03/02 01:28:25;;;;;;;6.47;4.40;;;14.90;33.10;;;;;;5147601;27;46934;-16
2022/03/02 01:30:52;;;;;;;5.90;4.40;;;14.80;33.00;;;;;;5147258;27;49026;-16
2022/03/02 01:33:19;;;;;;;6.53;4.65;;;14.80;33.10;;;;;;5147288;27;46890;-16
2022/03/02 01:35:45;;;;;;;6.25;4.70;;;14.80;33.10;;;;;;5147676;27;46788;-16
2022/03/02 01:38:12;;;;;;;6.15;4.53;;;14.80;33.20;;;;;;5147459;27;46946;-17
2022/03/02 01:40:40;;;;;;;5.88;4.55;;;14.70;33.20;;;;;;5146801;27;49067;-16
2022/03/02 01:43:07;;;;;;;6.25;4.93;;;14.70;33.30;;;;;;5147477;27;47338;-16
2022/03/02 01:45:34;;;;;;;6.95;4.53;;;14.70;33.30;;;;;;5146958;27;46971;-16
2022/03/02 01:48:01;;;;;;;6.60;4.68;;;14.70;33.30;;;;;;5147291;27;46971;-15
2022/03/02 01:50:28;;;;;;;5.70;4.80;;;14.70;33.40;;;;;;5147209;27;48789;-15
2022/03/02 01:52:54;;;;;;;5.60;4.70;;;14.60;33.40;;;;;;5147296;27;46896;-16
2022/03/02 01:55:21;;;;;;;6.05;4.47;;;14.60;33.40;;;;;;5146923;27;47001;-16
2022/03/02 01:57:49;;;;;;;5.97;4.57;;;14.60;33.50;;;;;;5147460;27;47106;-15
2022/03/02 02:00:18;;;;;;;7.82;5.00;;;14.60;33.50;;;;;;5146906;27;47030;-17
2022/03/02 02:02:45;;;;;;;5.93;4.68;;;14.60;34.20;;;;;;5147314;27;46913;-16
2022/03/02 02:05:12;;;;;;;7.50;4.82;;;14.50;33.50;;;;;;5147003;27;47034;-16
2022/03/02 02:07:39;;;;;;;5.43;4.55;;;14.50;33.50;;;;;;5147410;27;46832;-15
2022/03/02 02:10:06;;;;;;;5.07;4.40;;;14.50;33.60;;;;;;5146476;27;46957;-16
2022/03/02 02:12:33;;;;;;;6.75;5.13;;;14.50;33.60;;;;;;5147072;27;46969;-16
2022/03/02 02:15:01;;;;;;;7.03;5.20;;;14.50;33.60;;;;;;5146728;27;46875;-15
2022/03/02 02:17:28;;;;;;;5.88;4.88;;;14.40;33.70;;;;;;5147446;27;46829;-15
2022/03/02 02:19:55;;;;;;;9.07;5.25;;;14.40;33.70;;;;;;5146603;27;47905;-16
2022/03/02 02:22:23;;;;;;;4.85;4.18;;;14.40;33.70;;;;;;5146513;27;46925;-16
2022/03/02 02:24:49;;;;;;;6.72;4.97;;;14.40;33.70;;;;;;5146893;27;46872;-16
2022/03/02 02:27:16;;;;;;;6.30;4.70;;;14.40;33.80;;;;;;5147174;27;46930;-16
2022/03/02 02:29:43;;;;;;;7.43;4.90;;;14.30;33.80;;;;;;5146951;27;48972;-20
2022/03/02 02:32:10;;;;;;;6.25;4.55;;;14.30;33.80;;;;;;5146509;27;46874;-21
2022/03/02 02:34:37;;;;;;;7.18;4.85;;;14.30;33.90;;;;;;5149729;27;46813;-20
2022/03/02 02:37:05;;;;;;;5.68;4.65;;;14.30;33.90;;;;;;5150303;27;46927;-21
2022/03/02 02:39:35;;;;;;;6.53;4.63;;;14.30;34.00;;;;;;5150152;27;49127;-21
2022/03/02 02:42:03;;;;;;;6.22;4.80;;;14.20;33.90;;;;;;5150574;27;47164;-20
2022/03/02 02:44:30;;;;;;;5.63;4.38;;;14.20;33.90;;;;;;5150401;27;47007;-20
2022/03/02 02:46:57;;;;;;;5.57;4.60;;;14.20;33.90;;;;;;5150360;27;47303;-20
2022/03/02 02:49:24;;;;;;;5.50;4.90;;;14.20;34.00;;;;;;5150213;27;46972;-21
2022/03/02 02:51:51;;;;;;;5.38;4.85;;;14.20;34.00;;;;;;5149808;27;46730;-21
2022/03/02 02:54:18;;;;;;;6.22;4.75;;;14.20;34.00;;;;;;5149761;27;47052;-21
2022/03/02 02:56:46;;;;;;;6.53;5.00;;;14.10;34.10;;;;;;5150536;27;46856;-17
2022/03/02 02:59:12;;;;;;;7.40;4.85;;;14.10;34.00;;;;;;5149879;27;49092;-16
2022/03/02 03:01:39;;;;;;;6.28;4.78;;;14.10;34.10;;;;;;5150184;27;46991;-16
2022/03/02 03:04:06;;;;;;;5.95;4.55;;;14.10;34.10;;;;;;5149642;27;46795;-16
2022/03/02 03:06:33;;;;;;;6.25;4.53;;;14.00;34.10;;;;;;5150305;27;46938;-16
2022/03/02 03:09:00;;;;;;;5.57;4.70;;;14.00;34.10;;;;;;5149658;27;49055;-16
2022/03/02 03:11:26;;;;;;;5.60;4.60;;;14.00;34.20;;;;;;5149897;27;46832;-15
2022/03/02 03:13:54;;;;;;;6.03;4.65;;;14.00;34.20;;;;;;5149929;27;47060;-16
2022/03/02 03:16:21;;;;;;;6.82;5.10;;;13.90;34.10;;;;;;5149761;27;47291;-16
2022/03/02 03:18:48;;;;;;;7.28;4.97;;;13.90;34.20;;;;;;5149697;27;46929;-16
2022/03/02 03:21:14;;;;;;;6.07;4.25;;;13.90;34.20;;;;;;5149374;27;46859;-17
2022/03/02 03:23:41;;;;;;;5.03;4.28;;;13.90;34.30;;;;;;5149606;27;47034;-16
2022/03/02 03:26:08;;;;;;;6.23;4.53;;;13.80;34.30;;;;;;5150023;27;46868;-16
2022/03/02 03:28:35;;;;;;;5.40;4.55;;;13.80;34.40;;;;;;5149484;27;48725;-17
2022/03/02 03:31:03;;;;;;;6.13;4.47;;;13.80;34.40;;;;;;5149492;27;46973;-16
2022/03/02 03:33:29;;;;;;;5.75;4.28;;;13.80;34.40;;;;;;5149765;27;46886;-17
2022/03/02 03:35:56;;;;;;;6.32;4.60;;;13.80;34.50;;;;;;5149736;27;46909;-16
2022/03/02 03:38:23;;;;;;;5.57;4.45;;;13.70;34.40;;;;;;5149362;27;49073;-17
2022/03/02 03:40:50;;;;;;;6.18;4.63;;;13.70;34.40;;;;;;5149090;27;46909;-16
2022/03/02 03:43:16;;;;;;;6.28;4.45;;;13.70;34.40;;;;;;5149368;27;46791;-16
2022/03/02 03:45:43;;;;;;;5.93;4.78;;;13.70;34.40;;;;;;5148607;27;47290;-16
2022/03/02 03:48:11;;;;;;;5.97;4.47;;;13.70;34.50;;;;;;5148856;27;48797;-16
2022/03/02 03:50:39;;;;;;;5.60;4.60;;;13.70;34.50;;;;;;5148676;27;46982;-18
2022/03/02 03:53:06;;;;;;;5.73;4.80;;;13.80;34.40;;;;;;5148969;27;46991;-18
2022/03/02 03:55:33;;;;;;;6.13;4.68;;;13.90;34.20;;;;;;5149329;27;47022;-18
2022/03/02 03:57:59;;;;;;;5.63;4.57;;;14.00;34.00;;;;;;5148938;27;49067;-18
2022/03/02 04:00:26;;;;;;;6.00;4.40;;;14.10;33.90;;;;;;5149168;27;47006;-19
2022/03/02 04:02:53;;;;;;;6.55;4.88;;;14.20;33.70;;;;;;5148774;27;46803;-18
2022/03/02 04:05:21;;;;;;;5.93;4.60;;;14.30;33.50;;;;;;5148919;27;47284;-19
2022/03/02 04:07:54;;;;;;;6.05;4.90;;;14.30;33.40;;;;;;5149085;27;48093;-14
2022/03/02 04:10:21;;;;;;;5.93;4.43;;;14.40;33.30;;;;;;5148564;27;46820;-14
2022/03/02 04:12:48;;;;;;;6.85;4.70;;;14.40;33.30;;;;;;5148957;27;47037;-14
2022/03/02 04:15:14;;;;;;;5.68;4.47;;;14.40;33.20;;;;;;5148994;27;46979;-19
2022/03/02 04:17:41;;;;;;;4.93;4.40;;;14.40;33.20;;;;;;5148752;27;48898;-19
2022/03/02 04:20:09;;;;;;;6.43;4.65;;;14.40;33.10;;;;;;5148173;27;46916;-19
2022/03/02 04:22:37;;;;;;;5.63;4.20;;;14.40;33.10;;;;;;5148844;27;46968;-19
2022/03/02 04:25:04;;;;;;;4.85;4.35;;;14.40;33.10;;;;;;5148792;27;46926;-19
2022/03/02 04:27:31;;;;;;;6.03;4.22;;;14.40;33.10;;;;;;5148425;27;48778;-19
2022/03/02 04:29:58;;;;;;;5.65;4.18;;;14.40;33.10;;;;;;5148130;27;46985;-19
2022/03/02 04:32:24;;;;;;;6.72;4.97;;;14.40;33.10;;;;;;5148628;27;46755;-15
2022/03/02 04:34:51;;;;;;;4.35;3.50;;;14.30;33.10;;;;;;5148474;27;47169;-19
2022/03/02 04:37:18;;;;;;;4.90;4.03;;;14.30;33.10;;;;;;5148423;27;48102;-19
2022/03/02 04:39:46;;;;;;;5.37;4.57;;;14.30;33.10;;;;;;5148081;27;46988;-19
2022/03/02 04:42:13;;;;;;;5.33;4.47;;;14.30;33.20;;;;;;5148556;27;46909;-19
2022/03/02 04:44:39;;;;;;;5.50;4.53;;;14.30;33.20;;;;;;5148505;27;46936;-19
2022/03/02 04:47:07;;;;;;;4.87;3.97;;;14.20;33.10;;;;;;5148196;27;49095;-19
2022/03/02 04:49:34;;;;;;;5.37;4.37;;;14.20;33.20;;;;;;5148195;27;46912;-19
2022/03/02 04:52:00;;;;;;;4.45;3.97;;;14.20;33.90;;;;;;5148018;27;46886;-20
2022/03/02 04:57:13;;;;;;;6.45;4.40;;;14.10;33.30;;;;;;5145199;27;47411;-19
2022/03/02 04:59:40;;;;;;;5.10;4.03;;;14.10;33.40;;;;;;5147744;27;47404;-19
2022/03/02 05:02:07;;;;;;;4.88;4.38;;;14.10;33.40;;;;;;5147685;27;46799;-19
2022/03/02 05:04:33;;;;;;;5.00;4.17;;;14.00;33.40;;;;;;5148098;27;46891;-19
2022/03/02 05:07:00;;;;;;;5.78;4.40;;;14.00;34.10;;;;;;5147878;27;47851;-19
2022/03/02 05:09:27;;;;;;;5.88;4.30;;;14.00;33.50;;;;;;5147000;27;47277;-19
2022/03/02 05:11:54;;;;;;;5.35;4.22;;;14.00;33.60;;;;;;5147929;27;46805;-20
2022/03/02 05:14:22;;;;;;;5.05;4.15;;;13.90;33.50;;;;;;5147663;27;46886;-19
2022/03/02 05:16:49;;;;;;;5.13;4.23;;;13.90;33.60;;;;;;5147879;27;47964;-20
2022/03/02 05:19:15;;;;;;;5.32;4.20;;;13.90;33.70;;;;;;5147815;27;46905;-19
2022/03/02 05:21:42;;;;;;;5.57;4.32;;;13.80;33.60;;;;;;5147871;27;46860;-20
2022/03/02 05:24:09;;;;;;;5.57;4.32;;;13.80;33.60;;;;;;5147644;27;47373;-19
2022/03/02 05:26:35;;;;;;;5.30;4.40;;;13.80;33.70;;;;;;5147383;27;48099;-19
2022/03/02 05:29:02;;;;;;;5.60;5.05;;;13.80;33.80;;;;;;5147686;27;46888;-19
2022/03/02 05:31:30;;;;;;;6.93;3.90;;;13.80;33.80;;;;;;5147766;27;46964;-19
2022/03/02 05:33:57;;;;;;;6.18;4.40;;;13.70;33.80;;;;;;5147676;27;46845;-15
2022/03/02 05:36:24;;;;;;;5.73;4.30;;;13.70;33.70;;;;;;5147707;27;48872;-14
2022/03/02 05:38:51;;;;;;;6.13;4.13;;;13.70;33.90;;;;;;5147087;27;47148;-14
2022/03/02 05:41:18;;;;;;;5.30;4.10;;;13.60;33.90;;;;;;5147619;27;46990;-15
2022/03/02 05:43:45;;;;;;;5.63;4.38;;;13.60;33.90;;;;;;5147389;27;46891;-19
2022/03/02 05:46:11;;;;;;;5.18;4.45;;;13.60;33.90;;;;;;5147183;27;47940;-19
2022/03/02 05:48:39;;;;;;;5.80;4.20;;;13.60;34.00;;;;;;5146984;27;46749;-19
2022/03/02 05:51:06;;;;;;;5.50;4.40;;;13.60;33.90;;;;;;5147402;27;46952;-19
2022/03/02 05:53:34;;;;;;;5.72;4.55;;;13.60;34.00;;;;;;5147361;27;47098;-16
2022/03/02 05:56:00;;;;;;;6.50;4.53;;;13.60;34.00;;;;;;5146946;27;47050;-15
2022/03/02 05:58:27;;;;;;;6.55;4.43;;;13.50;34.50;;;;;;5147379;27;47477;-15
2022/03/02 06:00:54;;;;;;;6.55;4.20;;;13.50;34.00;;;;;;5147076;27;46911;-15
2022/03/02 06:03:21;;;;;;;6.77;4.70;;;13.50;33.90;;;;;;5147315;27;46937;-16
2022/03/02 06:05:49;;;;;;;5.68;4.18;;;13.50;34.00;;;;;;5146716;27;49148;-15
2022/03/02 06:08:15;;;;;;;5.73;4.17;;;13.50;34.00;;;;;;5147955;27;46926;-15
2022/03/02 06:10:43;;;;;;;5.40;3.92;;;13.50;33.90;;;;;;5150410;27;46894;-19
2022/03/02 06:13:10;;;;;;;5.32;3.92;;;13.70;33.90;;;;;;5150696;27;47062;-20
2022/03/02 06:15:37;;;;;;;4.80;4.07;;;13.80;33.70;;;;;;5150596;27;49115;-19
2022/03/02 06:18:05;;;;;;;4.63;3.97;;;13.90;33.60;;;;;;5150566;27;46888;-20
2022/03/02 06:20:32;;;;;;;4.43;3.83;;;14.00;33.40;;;;;;5150423;27;46915;-20
2022/03/02 06:23:02;;;;;;;4.33;3.80;;;14.10;33.20;;;;;;5150924;27;46887;-20
2022/03/02 06:25:29;;;;;;;4.38;3.75;;;14.20;33.00;;;;;;5150025;27;48218;-20
2022/03/02 06:27:56;;;;;;;4.68;4.15;;;14.20;32.90;;;;;;5150812;27;46906;-20
2022/03/02 06:30:23;;;;;;;5.45;3.75;;;14.30;32.90;;;;;;5150359;27;46813;-20
2022/03/02 06:32:50;;;;;;;6.05;4.10;;;14.30;32.80;;;;;;5150345;27;46812;-19
2022/03/02 06:35:17;;;;;;;7.07;4.50;;;14.30;32.70;;;;;;5150324;27;49010;-20
2022/03/02 06:37:43;;;;;;;5.20;4.13;;;14.30;32.70;;;;;;5150427;27;47533;-20
2022/03/02 06:40:13;;;;;;;4.40;4.00;;;14.30;32.70;;;;;;5150681;27;47030;-15
2022/03/02 06:43:00;;;;;;;5.03;4.13;;;14.30;32.70;;;;;;5150356;27;46871;-15
2022/03/02 06:45:29;;;;;;;4.55;3.45;;;14.30;32.70;;;;;;5150117;27;48096;-15
2022/03/02 06:48:01;;;;;;;4.68;4.10;;;14.30;32.70;;;;;;5150092;27;46887;-15
2022/03/02 06:50:29;;;;;;;5.47;4.15;;;14.30;32.70;;;;;;5150299;27;46863;-20
2022/03/02 06:52:55;;;;;;;5.30;3.95;;;14.30;32.80;;;;;;5150401;27;46912;-20
2022/03/02 06:55:25;;;;;;;4.65;3.85;;;14.30;32.80;;;;;;5149996;27;48288;-20
2022/03/02 06:57:52;;;;;;;6.43;4.40;;;14.20;32.80;;;;;;5149798;27;46813;-19
2022/03/02 07:00:19;;;;;;;4.10;3.53;;;14.20;32.90;;;;;;5149628;27;46964;-19
2022/03/02 07:02:46;;;;;;;6.03;4.10;;;14.20;32.90;;;;;;5150338;27;47059;-20
2022/03/02 07:05:13;;;;;;;4.28;3.88;;;14.20;33.00;;;;;;5149471;27;47058;-20
2022/03/02 07:07:40;;;;;;;5.20;4.05;;;14.20;33.00;;;;;;5149639;27;46899;-20
2022/03/02 07:10:08;;;;;;;5.25;3.58;;;14.10;33.10;;;;;;5149321;27;47060;-20
2022/03/02 07:12:36;;;;;;;5.05;3.92;;;14.10;33.10;;;;;;5150067;27;47114;-20
2022/03/02 07:15:03;;;;;;;5.63;3.75;;;14.10;33.10;;;;;;5149607;27;47866;-20
2022/03/02 07:17:32;;;;;;;5.03;3.90;;;14.10;33.20;;;;;;5149997;27;46836;-15
2022/03/02 07:19:58;;;;;;;4.53;3.77;;;14.10;33.20;;;;;;5147759;27;46958;-16
2022/03/02 07:22:25;;;;;;;6.40;4.30;;;14.00;33.20;;;;;;5149540;27;47246;-15
2022/03/02 07:24:53;;;;;;;5.10;3.90;;;14.00;33.20;;;;;;5149366;27;49123;-15
2022/03/02 07:27:20;;;;;;;5.13;4.00;;;14.00;33.30;;;;;;5149327;27;46921;-16
2022/03/02 07:29:49;;;;;;;5.37;4.03;;;14.00;33.40;;;;;;5149655;27;47108;-15
2022/03/02 07:32:16;;;;;;;7.07;4.10;;;14.00;33.40;;;;;;5149871;27;47160;-15
2022/03/02 07:34:43;;;;;;;5.38;4.57;;;13.90;33.40;;;;;;5148960;27;47839;-15
2022/03/02 07:37:10;;;;;;;5.70;3.92;;;13.90;33.50;;;;;;5149441;27;47154;-15
2022/03/02 07:39:37;;;;;;;5.90;4.23;;;13.90;33.50;;;;;;5149034;27;46953;-15
2022/03/02 07:42:04;;;;;;;6.72;4.32;;;13.90;33.50;;;;;;5149120;27;46913;-14
2022/03/02 07:44:31;;;;;;;4.20;3.80;;;13.90;33.50;;;;;;5148851;27;46899;-15
2022/03/02 07:46:59;;;;;;;6.90;4.32;;;13.90;33.60;;;;;;5149322;27;46898;-15
2022/03/02 07:49:26;;;;;;;4.90;4.23;;;13.90;33.60;;;;;;5148776;27;46868;-15
2022/03/02 07:51:53;;;;;;;5.10;4.20;;;13.90;33.70;;;;;;5149072;27;47090;-16
2022/03/02 07:54:19;;;;;;;4.80;4.00;;;13.90;33.60;;;;;;5149189;27;48146;-15
2022/03/02 07:56:47;;;;;;;5.97;4.15;;;13.90;33.70;;;;;;5148822;27;46871;-15
2022/03/02 07:59:14;;;;;;;4.80;4.10;;;13.90;33.70;;;;;;5149145;27;47077;-15
2022/03/02 08:01:40;;;;;;;5.20;4.40;;;13.90;33.80;;;;;;5149098;27;47119;-15
2022/03/02 08:04:09;;;;;;;5.37;4.03;;;13.90;33.80;;;;;;5148680;27;47914;-15
2022/03/02 08:06:37;;;;;;;9.25;4.50;;;13.90;33.90;;;;;;5148535;27;47066;-14
2022/03/02 08:09:04;;;;;;;11.47;5.43;;;13.90;34.10;;;;;;5148151;27;46866;-14
2022/03/02 08:11:32;;;;;;;14.02;5.57;;;13.90;34.30;;;;;;5149038;27;46859;-15
2022/03/02 08:13:59;;;;;;;7.13;4.90;;;13.90;34.20;;;;;;5148296;27;47815;-14
2022/03/02 08:16:27;;;;;;;6.70;4.13;;;14.00;34.30;;;;;;5148931;27;46843;-17
2022/03/02 08:18:54;;;;;;;8.15;4.80;;;14.00;34.40;;;;;;5148496;27;46987;-15
2022/03/02 08:21:22;;;;;;;5.90;4.70;;;14.00;34.20;;;;;;5148790;27;47162;-15
2022/03/02 08:23:50;;;;;;;9.77;5.20;;;14.00;34.20;;;;;;5148315;27;48166;-14
2022/03/02 08:26:18;;;;;;;5.77;4.53;;;14.00;34.10;;;;;;5148773;27;47245;-15
2022/03/02 08:28:45;;;;;;;7.93;4.30;;;14.00;34.40;;;;;;5148735;27;46840;-14
2022/03/02 08:31:12;;;;;;;5.40;4.27;;;14.10;34.40;;;;;;5148443;27;47031;-15
2022/03/02 08:33:38;;;;;;;5.63;4.50;;;14.10;34.20;;;;;;5148603;27;48838;-19
2022/03/02 08:36:05;;;;;;;7.17;4.53;;;14.20;34.50;;;;;;5148252;27;46829;-19
2022/03/02 08:38:38;;;;;;;5.70;4.27;;;14.20;34.30;;;;;;5148222;27;46876;-19
2022/03/02 08:41:06;;;;;;;6.63;4.10;;;14.20;34.30;;;;;;5148576;27;47121;-15
2022/03/02 08:43:34;;;;;;;6.80;4.35;;;14.20;33.80;;;;;;5146927;27;47931;-14
2022/03/02 08:46:01;;;;;;;5.80;4.28;;;14.10;34.20;;;;;;5147403;27;47156;-14
2022/03/02 08:48:28;;;;;;;5.88;4.22;;;14.10;34.30;;;;;;5148265;27;46754;-14
2022/03/02 08:50:55;;;;;;;4.20;3.80;;;14.10;34.30;;;;;;5148146;27;47335;-14
2022/03/02 08:53:22;;;;;;;7.00;4.07;;;14.10;34.40;;;;;;5147987;27;48187;-14
2022/03/02 08:55:51;;;;;;;5.40;4.47;;;14.10;34.40;;;;;;5147626;27;47122;-14
2022/03/02 08:58:21;;;;;;;5.95;4.38;;;14.10;34.40;;;;;;5147902;27;47014;-14
2022/03/02 09:00:48;;;;;;;6.72;4.35;;;14.10;34.50;;;;;;5148175;27;47307;-20
2022/03/02 09:03:16;;;;;;;6.27;4.27;;;14.10;34.40;;;;;;5148081;27;46930;-15
2022/03/02 09:05:42;;;;;;;4.90;3.80;;;14.00;34.40;;;;;;5148017;27;47270;-14
2022/03/02 09:08:09;;;;;;;4.83;3.80;;;14.10;35.20;;;;;;5147898;27;46982;-14
2022/03/02 09:10:36;;;;;;;8.50;4.32;;;14.00;34.50;;;;;;5147338;27;47303;-14
2022/03/02 09:13:04;;;;;;;7.00;4.32;;;14.10;34.40;;;;;;5147782;27;47955;-14
2022/03/02 09:15:34;;;;;;;5.05;3.63;;;14.10;34.60;;;;;;5147704;27;47425;-14
2022/03/02 09:18:00;;;;;;;5.47;3.53;;;14.10;34.60;;;;;;5147955;27;46948;-14
2022/03/02 09:20:27;;;;;;;5.90;4.20;;;14.10;34.60;;;;;;5147747;27;46910;-14
2022/03/02 09:22:54;;;;;;;6.45;3.83;;;14.10;34.70;;;;;;5147651;27;47283;-13
2022/03/02 09:25:21;;;;;;;4.03;3.63;;;14.10;34.70;;;;;;5147279;27;46866;-14
2022/03/02 09:27:47;;;;;;;5.27;3.90;;;14.00;34.70;;;;;;5147712;27;46738;-19
2022/03/02 09:30:15;;;;;;;5.53;3.90;;;14.10;34.80;;;;;;5147312;27;46925;-19
2022/03/02 09:32:42;;;;;;;4.93;3.77;;;14.10;34.80;;;;;;5147568;27;48906;-19
2022/03/02 09:35:12;;;;;;;5.75;4.10;;;14.10;34.80;;;;;;5146128;27;47128;-20
2022/03/02 09:37:40;;;;;;;5.63;3.90;;;14.10;34.90;;;;;;5147243;27;46756;-19
2022/03/02 09:40:07;;;;;;;4.35;3.63;;;14.10;34.80;;;;;;5147522;27;46881;-19
2022/03/02 09:42:40;;;;;;;7.68;3.45;;;14.10;34.80;;;;;;5146160;27;46875;-19
2022/03/02 09:45:08;;;;;;;5.28;3.75;;;14.10;34.80;;;;;;5147027;27;47009;-19
2022/03/02 09:47:43;;;;;;;4.90;3.53;;;14.10;34.90;;;;;;5147426;27;46877;-20
2022/03/02 09:50:12;;;;;;;7.70;3.50;;;14.10;34.90;;;;;;5147601;27;46929;-19
2022/03/02 09:52:40;;;;;;;4.03;3.20;;;14.10;34.90;;;;;;5147105;27;48870;-20
2022/03/02 09:55:09;;;;;;;5.55;3.67;;;14.10;34.90;;;;;;5145588;27;47183;-19
2022/03/02 09:57:37;;;;;;;4.90;3.72;;;14.10;34.90;;;;;;5146557;27;46903;-19
2022/03/02 10:00:04;;;;;;;6.10;3.78;;;14.20;35.00;;;;;;5145806;27;46953;-20
2022/03/02 10:02:35;;;;;;;6.05;3.80;;;14.10;35.00;;;;;;5145559;27;49081;-19
2022/03/02 10:05:06;;;;;;;4.85;3.55;;;14.20;35.00;;;;;;5146520;27;47405;-20
2022/03/02 10:07:35;;;;;;;4.10;3.13;;;14.20;35.00;;;;;;5147011;27;46863;-20
2022/03/02 10:10:05;;;;;;;5.97;4.03;;;14.20;35.10;;;;;;5146583;27;47229;-20
2022/03/02 10:12:32;;;;;;;4.70;3.40;;;14.20;35.10;;;;;;5146924;27;50003;-20
2022/03/02 10:14:59;;;;;;;4.30;3.63;;;14.20;35.00;;;;;;5146526;27;47441;-20
2022/03/02 10:17:31;;;;;;;4.05;3.53;;;14.20;35.10;;;;;;5147020;27;47205;-19
2022/03/02 10:19:59;;;;;;;4.68;3.28;;;14.20;35.10;;;;;;5146852;27;47204;-22
2022/03/02 10:22:48;;;;;;;17.48;4.22;;;14.20;36.00;;;;;;5146649;27;48992;-20
2022/03/02 10:25:17;;;;;;;10.55;4.63;;;14.30;36.80;;;;;;5145942;27;47091;-19
2022/03/02 10:27:49;;;;;;;14.70;8.57;;;14.50;36.80;;;;;;5146781;27;46942;-19
2022/03/02 10:30:16;;;;;;;13.13;5.90;;;14.50;37.20;;;;;;5147022;27;47062;-19
2022/03/02 10:32:43;;;;;;;12.25;5.22;;;14.50;37.00;;;;;;5146882;27;47896;-19
2022/03/02 10:35:10;;;;;;;7.88;5.35;;;14.60;36.50;;;;;;5146670;27;46954;-19
2022/03/02 10:38:04;;;;;;;9.32;6.70;;;14.70;36.30;;;;;;5146834;27;46851;-20
2022/03/02 10:40:33;;;;;;;10.67;5.80;;;14.70;36.00;;;;;;5146849;27;47015;-20
2022/03/02 10:43:01;;;;;;;12.13;5.90;;;14.70;35.60;;;;;;5145851;27;47159;-20
2022/03/02 10:45:29;;;;;;;7.70;5.80;;;14.70;35.60;;;;;;5145796;27;46974;-20
2022/03/02 10:47:59;;;;;;;9.65;5.70;;;14.70;35.60;;;;;;5145420;27;46883;-20
2022/03/02 10:50:27;;;;;;;8.60;5.32;;;14.70;35.60;;;;;;5144707;27;46768;-19
2022/03/02 10:52:54;;;;;;;9.38;5.97;;;14.70;35.50;;;;;;5144960;27;48218;-19
2022/03/02 10:55:22;;;;;;;10.27;5.60;;;14.70;35.50;;;;;;5147440;27;47105;-19
2022/03/02 10:57:50;;;;;;;10.10;5.63;;;14.70;35.40;;;;;;5148214;27;46888;-19
2022/03/02 11:00:19;;;;;;;7.97;5.20;;;14.80;35.30;;;;;;5148188;27;46907;-19
2022/03/02 11:02:47;;;;;;;8.57;5.15;;;14.80;35.30;;;;;;5147947;27;48159;-19
2022/03/02 11:05:15;;;;;;;7.40;5.60;;;14.90;35.30;;;;;;5149054;27;47025;-19
2022/03/02 11:07:42;;;;;;;8.55;5.47;;;14.80;35.20;;;;;;5149833;27;47054;-19
2022/03/02 11:10:10;;;;;;;7.43;5.32;;;14.80;35.70;;;;;;5149517;27;46975;-19
2022/03/02 11:12:41;;;;;;;7.93;5.15;;;14.90;35.50;;;;;;5149995;27;47859;-20
2022/03/02 11:15:08;;;;;;;7.93;5.00;;;14.90;35.40;;;;;;5149727;27;46842;-19
2022/03/02 11:17:36;;;;;;;8.32;5.25;;;14.90;35.30;;;;;;5149838;27;46893;-19
2022/03/02 11:20:06;;;;;;;7.05;4.97;;;15.00;35.30;;;;;;5149553;27;47256;-19
2022/03/02 11:22:33;;;;;;;9.70;4.95;;;15.00;35.20;;;;;;5149373;27;48121;-19
2022/03/02 11:25:00;;;;;;;5.40;4.70;;;15.00;35.20;;;;;;5149155;27;47006;-19
2022/03/02 11:27:28;;;;;;;5.60;4.70;;;15.00;35.20;;;;;;5149734;27;46766;-14
2022/03/02 11:30:06;;;;;;;6.47;5.07;;;15.00;35.20;;;;;;5149627;27;47242;-14
2022/03/02 11:32:33;;;;;;;6.70;5.13;;;15.00;35.20;;;;;;5149320;27;47067;-14
2022/03/02 11:35:01;;;;;;;8.85;4.75;;;15.00;35.10;;;;;;5147982;27;46893;-14
2022/03/02 11:37:28;;;;;;;7.18;5.15;;;15.00;35.10;;;;;;5147502;27;46911;-14
2022/03/02 11:39:55;;;;;;;5.10;4.60;;;15.00;35.20;;;;;;5147457;27;47262;-16
2022/03/02 11:42:28;;;;;;;6.38;4.78;;;15.00;35.20;;;;;;5147727;27;49035;-14
2022/03/02 11:44:56;;;;;;;9.05;5.00;;;15.00;35.30;;;;;;5146991;27;46852;-15
2022/03/02 11:47:25;;;;;;;7.70;4.80;;;15.00;35.20;;;;;;5147536;27;46965;-13
2022/03/02 11:49:52;;;;;;;6.45;4.30;;;15.00;35.20;;;;;;5148063;27;47034;-13
2022/03/02 11:52:19;;;;;;;8.43;5.00;;;15.00;35.20;;;;;;5149272;27;47935;-13
2022/03/02 11:54:47;;;;;;;5.90;4.43;;;15.10;35.10;;;;;;5148776;27;46816;-14
2022/03/02 11:57:15;;;;;;;6.43;4.65;;;15.10;35.10;;;;;;5149211;27;46863;-13
2022/03/02 11:59:42;;;;;;;5.80;4.28;;;15.20;35.20;;;;;;5149174;27;47186;-14
2022/03/02 12:02:13;;;;;;;7.15;4.43;;;15.20;35.00;;;;;;5148992;27;49075;-14
2022/03/02 12:04:41;;;;;;;7.20;4.38;;;15.30;35.00;;;;;;5148914;27;46865;-14
2022/03/02 12:07:08;;;;;;;6.82;4.53;;;15.30;34.90;;;;;;5148039;27;46907;-14
2022/03/02 12:09:36;;;;;;;5.85;4.63;;;15.40;34.90;;;;;;5148801;27;47184;-14
2022/03/02 12:12:11;;;;;;;5.80;4.45;;;15.40;34.70;;;;;;5148511;27;47843;-14
2022/03/02 12:14:45;;;;;;;5.03;4.20;;;15.50;34.60;;;;;;5148362;27;47266;-14
2022/03/02 12:17:16;;;;;;;7.38;4.43;;;15.60;34.60;;;;;;5148799;27;47091;-15
2022/03/02 12:19:48;;;;;;;4.30;3.90;;;15.60;34.60;;;;;;5148424;27;47222;-13
2022/03/02 12:22:17;;;;;;;6.45;4.85;;;15.60;34.50;;;;;;5147041;27;47898;-14
2022/03/02 12:24:44;;;;;;;6.07;3.90;;;15.60;34.50;;;;;;5147430;27;47408;-14
2022/03/02 12:27:12;;;;;;;4.80;4.07;;;15.60;34.50;;;;;;5148382;27;46853;-14
2022/03/02 12:29:39;;;;;;;5.53;4.57;;;15.60;34.60;;;;;;5148610;27;46906;-14
2022/03/02 12:32:11;;;;;;;6.63;4.10;;;15.60;34.60;;;;;;5147405;27;48758;-14
2022/03/02 12:34:38;;;;;;;5.15;4.35;;;15.60;34.60;;;;;;5148113;27;46894;-14
2022/03/02 12:37:07;;;;;;;5.25;4.00;;;15.60;34.60;;;;;;5148516;27;46870;-14
2022/03/02 12:39:33;;;;;;;5.82;4.18;;;15.60;34.50;;;;;;5148480;27;47162;-14
2022/03/02 12:42:02;;;;;;;5.00;4.38;;;15.60;34.50;;;;;;5148242;27;49107;-14
2022/03/02 12:44:29;;;;;;;6.13;4.50;;;15.70;34.50;;;;;;5148006;27;47198;-20
2022/03/02 12:46:56;;;;;;;5.20;3.67;;;15.70;34.50;;;;;;5148212;27;47070;-20
2022/03/02 12:49:26;;;;;;;4.50;4.07;;;15.70;34.50;;;;;;5148383;27;46927;-20